createdAt,value
2018-02-14T00:01:10.934Z,94504.73
2018-02-14T00:03:39.342Z,94501.93
2018-02-14T00:06:07.786Z,94501.58
2018-02-14T00:08:36.273Z,94493.98
2018-02-14T00:11:04.681Z,94497.41
2018-02-14T00:13:33.073Z,94499.25
2018-02-14T00:16:01.482Z,94500.54
2018-02-14T00:18:29.874Z,94491.16
2018-02-14T00:20:58.298Z,94508.07
2018-02-14T00:23:26.726Z,94488.90
2018-02-14T00:25:55.132Z,94496.30
2018-02-14T00:28:23.538Z,94499.31
2018-02-14T00:30:51.943Z,94489.33
2018-02-14T00:33:20.359Z,94496.48
2018-02-14T00:35:48.827Z,94500.91
2018-02-14T00:38:17.216Z,94488.39
2018-02-14T00:40:45.789Z,94493.72
2018-02-14T00:43:14.169Z,94495.27
2018-02-14T00:45:42.556Z,94490.61
2018-02-14T00:48:11.115Z,94496.11
2018-02-14T00:50:39.544Z,94499.66
2018-02-14T00:53:08.121Z,94504.36
2018-02-14T00:55:36.523Z,94506.44
2018-02-14T00:58:05.153Z,94516.23
2018-02-14T01:00:33.674Z,94514.13
2018-02-14T01:03:02.078Z,94517.01
2018-02-14T01:05:30.720Z,94526.17
2018-02-14T01:07:59.143Z,94524.55
2018-02-14T01:10:27.520Z,94522.56
2018-02-14T01:12:55.964Z,94517.80
2018-02-14T01:15:24.347Z,94521.58
2018-02-14T01:17:52.767Z,94518.83
2018-02-14T01:20:27.385Z,94526.66
2018-02-14T01:22:55.920Z,94523.98
2018-02-14T01:25:24.332Z,94525.77
2018-02-14T01:27:52.731Z,94526.72
2018-02-14T01:30:21.134Z,94520.23
2018-02-14T01:32:49.535Z,94528.15
2018-02-14T01:35:18.000Z,94528.59
2018-02-14T01:37:46.410Z,94532.53
2018-02-14T01:40:14.818Z,94526.94
2018-02-14T01:42:43.215Z,94532.09
2018-02-14T01:45:11.603Z,94523.68
2018-02-14T01:47:40.051Z,94520.61
2018-02-14T01:50:08.458Z,94530.34
2018-02-14T01:52:36.858Z,94534.73
2018-02-14T01:55:05.569Z,94532.27
2018-02-14T01:57:33.968Z,94530.93
2018-02-14T02:00:02.514Z,94530.13
2018-02-14T02:02:30.924Z,94527.30
2018-02-14T02:04:59.391Z,94531.48
2018-02-14T02:07:27.779Z,94536.62
2018-02-14T02:09:56.163Z,94533.67
2018-02-14T02:12:24.633Z,94531.34
2018-02-14T02:14:53.126Z,94540.92
2018-02-14T02:17:21.508Z,94535.37
2018-02-14T02:19:49.928Z,94534.76
2018-02-14T02:22:18.283Z,94535.34
2018-02-14T02:24:46.705Z,94537.27
2018-02-14T02:27:15.093Z,94534.24
2018-02-14T02:29:43.482Z,94547.08
2018-02-14T02:32:11.878Z,94543.20
2018-02-14T02:34:40.316Z,94542.50
2018-02-14T02:37:08.892Z,94538.88
2018-02-14T02:39:49.020Z,94540.77
2018-02-14T02:42:17.462Z,94544.41
2018-02-14T02:44:45.854Z,94550.55
2018-02-14T02:47:14.251Z,94546.88
2018-02-14T02:49:42.644Z,94534.12
2018-02-14T02:52:11.044Z,94545.46
2018-02-14T02:54:39.454Z,94538.38
2018-02-14T02:57:07.936Z,94552.28
2018-02-14T02:59:36.335Z,94546.84
2018-02-14T03:02:04.815Z,94548.96
2018-02-14T03:04:33.200Z,94551.28
2018-02-14T03:07:01.617Z,94549.13
2018-02-14T03:09:30.008Z,94547.00
2018-02-14T03:11:58.447Z,94548.87
2018-02-14T03:14:26.834Z,94549.13
2018-02-14T03:16:55.216Z,94550.39
2018-02-14T03:19:23.616Z,94542.00
2018-02-14T03:21:52.089Z,94548.75
2018-02-14T03:24:20.576Z,94549.36
2018-02-14T03:26:49.041Z,94544.91
2018-02-14T03:29:17.408Z,94547.59
2018-02-14T03:31:45.802Z,94550.11
2018-02-14T03:34:14.208Z,94548.78
2018-02-14T03:36:42.671Z,94547.31
2018-02-14T03:39:11.043Z,94551.18
2018-02-14T03:41:39.526Z,94551.22
2018-02-14T03:44:07.916Z,94544.66
2018-02-14T03:46:36.316Z,94548.58
2018-02-14T03:49:04.717Z,94557.02
2018-02-14T03:51:33.111Z,94554.77
2018-02-14T03:54:01.591Z,94561.02
2018-02-14T03:56:29.981Z,94566.41
2018-02-14T03:58:58.386Z,94577.75
2018-02-14T04:01:26.861Z,94576.64
2018-02-14T04:03:55.251Z,94583.38
2018-02-14T04:06:23.655Z,94578.21
2018-02-14T04:08:52.056Z,94592.41
2018-02-14T04:11:20.534Z,94592.17
2018-02-14T04:13:49.008Z,94598.63
2018-02-14T04:16:17.369Z,94605.36
2018-02-14T04:18:45.754Z,94607.88
2018-02-14T04:21:14.152Z,94599.95
2018-02-14T04:23:42.522Z,94608.34
2018-02-14T04:26:11.041Z,94610.46
2018-02-14T04:28:40.154Z,94607.59
2018-02-14T04:31:08.560Z,94620.67
2018-02-14T04:33:37.046Z,94620.95
2018-02-14T04:36:05.431Z,94616.77
2018-02-14T04:38:34.075Z,94628.41
2018-02-14T04:41:02.481Z,94628.32
2018-02-14T04:43:30.930Z,94633.94
2018-02-14T04:45:59.334Z,94634.09
2018-02-14T04:48:27.856Z,94633.82
2018-02-14T04:50:56.365Z,94634.98
2018-02-14T04:53:24.766Z,94635.87
2018-02-14T04:55:53.228Z,94645.14
2018-02-14T04:58:21.629Z,94637.53
2018-02-14T05:00:50.117Z,94649.81
2018-02-14T05:03:18.513Z,94650.56
2018-02-14T05:05:46.906Z,94650.20
2018-02-14T05:08:15.379Z,94647.47
2018-02-14T05:10:43.856Z,94656.72
2018-02-14T05:13:12.263Z,94649.12
2018-02-14T05:15:40.651Z,94662.31
2018-02-14T05:18:09.047Z,94654.02
2018-02-14T05:20:37.481Z,94655.63
2018-02-14T05:23:05.885Z,94664.94
2018-02-14T05:25:34.288Z,94658.61
2018-02-14T05:28:02.677Z,94664.57
2018-02-14T05:30:31.062Z,94675.56
2018-02-14T05:32:59.514Z,94676.49
2018-02-14T05:35:27.913Z,94671.89
2018-02-14T05:37:56.405Z,94677.68
2018-02-14T05:40:24.798Z,94687.87
2018-02-14T05:42:53.289Z,94684.66
2018-02-14T05:45:21.727Z,94681.30
2018-02-14T05:47:50.109Z,94688.44
2018-02-14T05:50:18.603Z,94691.92
2018-02-14T05:52:46.998Z,94696.16
2018-02-14T05:55:15.406Z,94696.95
2018-02-14T05:57:43.807Z,94698.05
2018-02-14T06:00:12.213Z,94698.16
2018-02-14T06:02:40.705Z,94697.89
2018-02-14T06:05:09.120Z,94694.90
2018-02-14T06:07:37.523Z,94700.67
2018-02-14T06:10:05.990Z,94703.84
2018-02-14T06:12:34.401Z,94699.53
2018-02-14T06:15:03.092Z,94711.22
2018-02-14T06:17:31.491Z,94716.16
2018-02-14T06:19:59.974Z,94712.50
2018-02-14T06:22:28.377Z,94713.97
2018-02-14T06:24:56.782Z,94717.60
2018-02-14T06:27:25.265Z,94715.55
2018-02-14T06:29:53.663Z,94726.41
2018-02-14T06:32:22.079Z,94726.44
2018-02-14T06:34:50.459Z,94735.38
2018-02-14T06:37:18.906Z,94737.41
2018-02-14T06:39:47.348Z,94741.58
2018-02-14T06:42:15.759Z,94735.95
2018-02-14T06:44:44.239Z,94735.91
2018-02-14T06:47:12.660Z,94745.44
2018-02-14T06:49:41.070Z,94742.72
2018-02-14T06:52:09.545Z,94748.33
2018-02-14T06:54:37.922Z,94750.33
2018-02-14T06:57:06.422Z,94744.81
2018-02-14T06:59:34.892Z,94741.30
2018-02-14T07:02:03.450Z,94742.84
2018-02-14T07:04:32.011Z,94741.84
2018-02-14T07:07:00.505Z,94743.73
2018-02-14T07:09:28.907Z,94748.81
2018-02-14T07:11:57.305Z,94754.09
2018-02-14T07:14:25.718Z,94751.43
2018-02-14T07:16:54.246Z,94757.36
2018-02-14T07:19:22.656Z,94755.38
2018-02-14T07:21:51.066Z,94752.77
2018-02-14T07:24:19.450Z,94745.38
2018-02-14T07:26:47.847Z,94758.88
2018-02-14T07:29:16.608Z,94761.78
2018-02-14T07:31:45.051Z,94760.91
2018-02-14T07:34:13.458Z,94766.78
2018-02-14T07:36:41.856Z,94766.30
2018-02-14T07:39:10.254Z,94769.06
2018-02-14T07:41:38.728Z,94772.99
2018-02-14T07:44:07.129Z,94783.06
2018-02-14T07:46:35.558Z,94790.20
2018-02-14T07:49:03.990Z,94790.45
2018-02-14T07:51:32.800Z,94791.05
2018-02-14T07:54:01.583Z,94790.87
2018-02-14T07:56:29.998Z,94791.95
2018-02-14T07:58:58.401Z,94785.16
2018-02-14T08:01:26.793Z,94797.75
2018-02-14T08:03:55.199Z,94797.30
2018-02-14T08:06:23.680Z,94802.27
2018-02-14T08:08:52.066Z,94796.50
2018-02-14T08:11:20.467Z,94808.05
2018-02-14T08:13:48.967Z,94803.23
2018-02-14T08:16:17.366Z,94807.61
2018-02-14T08:18:45.842Z,94808.53
2018-02-14T08:21:14.333Z,94809.61
2018-02-14T08:23:42.738Z,94811.73
2018-02-14T08:26:11.155Z,94821.66
2018-02-14T08:28:39.666Z,94818.33
2018-02-14T08:33:42.704Z,94821.12
2018-02-14T08:36:11.214Z,94828.45
2018-02-14T08:38:39.633Z,94831.93
2018-02-14T08:41:08.051Z,94823.44
2018-02-14T08:43:36.466Z,94830.70
2018-02-14T08:46:04.871Z,94834.16
2018-02-14T08:48:33.267Z,94833.98
2018-02-14T08:51:01.688Z,94833.80
2018-02-14T08:53:30.176Z,94840.59
2018-02-14T08:55:58.682Z,94837.00
2018-02-14T08:58:27.088Z,94847.67
2018-02-14T09:00:55.484Z,94840.04
2018-02-14T09:03:23.892Z,94842.11
2018-02-14T09:05:52.410Z,94841.04
2018-02-14T09:08:20.835Z,94839.81
2018-02-14T09:10:49.233Z,94839.85
2018-02-14T09:13:17.629Z,94852.57
2018-02-14T09:15:46.047Z,94854.85
2018-02-14T09:18:14.528Z,94856.92
2018-02-14T09:20:43.005Z,94867.72
2018-02-14T09:23:11.415Z,94867.14
2018-02-14T09:25:39.833Z,94877.15
2018-02-14T09:28:08.230Z,94868.73
2018-02-14T09:30:36.685Z,94880.50
2018-02-14T09:33:05.211Z,94870.39
2018-02-14T09:35:33.968Z,94882.42
2018-02-14T09:38:02.663Z,94866.36
2018-02-14T09:40:31.060Z,94883.47
2018-02-14T09:42:59.602Z,94888.20
2018-02-14T09:45:28.004Z,94869.52
2018-02-14T09:47:56.427Z,94881.02
2018-02-14T09:50:24.809Z,94892.25
2018-02-14T09:52:53.421Z,94900.70
2018-02-14T09:55:21.902Z,94892.95
2018-02-14T09:57:50.412Z,94892.41
2018-02-14T10:00:19.080Z,94894.84
2018-02-14T10:02:47.482Z,94885.06
2018-02-14T10:05:15.867Z,94896.24
2018-02-14T10:07:44.335Z,94883.93
2018-02-14T10:10:12.737Z,94880.66
2018-02-14T10:12:41.126Z,94880.59
2018-02-14T10:15:09.568Z,94889.20
2018-02-14T10:17:37.954Z,94889.00
2018-02-14T10:20:06.445Z,94883.91
2018-02-14T10:22:34.883Z,94875.19
2018-02-14T10:25:03.282Z,94892.02
2018-02-14T10:27:31.741Z,94880.73
2018-02-14T10:30:00.142Z,94897.67
2018-02-14T10:32:28.924Z,94891.81
2018-02-14T10:34:57.357Z,94902.67
2018-02-14T10:37:25.755Z,94896.11
2018-02-14T10:39:54.245Z,94881.11
2018-02-14T10:42:22.732Z,94886.72
2018-02-14T10:44:51.217Z,94871.06
2018-02-14T10:47:19.622Z,94876.78
2018-02-14T10:49:48.028Z,94883.17
2018-02-14T10:52:16.429Z,94897.15
2018-02-14T10:54:44.813Z,94892.52
2018-02-14T10:57:13.359Z,94903.59
2018-02-14T10:59:41.837Z,94883.22
2018-02-14T11:02:10.665Z,94892.41
2018-02-14T11:04:44.595Z,94885.33
2018-02-14T11:07:18.949Z,94882.83
2018-02-14T11:09:47.429Z,94884.19
2018-02-14T11:12:16.094Z,94879.97
2018-02-14T11:14:44.575Z,94878.28
2018-02-14T11:17:12.961Z,94876.99
2018-02-14T11:19:41.355Z,94875.70
2018-02-14T11:22:09.755Z,94874.68
2018-02-14T11:24:38.186Z,94890.53
2018-02-14T11:27:06.716Z,94882.45
2018-02-14T11:29:35.109Z,94880.89
2018-02-14T11:32:03.514Z,94899.45
2018-02-14T11:34:31.932Z,94882.45
2018-02-14T11:37:00.329Z,94885.95
2018-02-14T11:39:28.807Z,94877.83
2018-02-14T11:41:57.197Z,94876.79
2018-02-14T11:44:25.606Z,94884.00
2018-02-14T11:46:54.027Z,94883.83
2018-02-14T11:49:22.450Z,94880.03
2018-02-14T11:51:50.849Z,94886.56
2018-02-14T11:54:19.250Z,94882.97
2018-02-14T11:56:47.720Z,94881.75
2018-02-14T11:59:16.227Z,94880.22
2018-02-14T12:01:44.609Z,94882.53
2018-02-14T12:04:12.989Z,94889.05
2018-02-14T12:06:41.480Z,94883.34
2018-02-14T12:09:09.953Z,94894.72
2018-02-14T12:11:38.338Z,94891.38
2018-02-14T12:14:06.761Z,94899.31
2018-02-14T12:16:35.161Z,94898.43
2018-02-14T12:19:03.581Z,94903.83
2018-02-14T12:21:32.028Z,94915.70
2018-02-14T12:24:00.431Z,94900.32
2018-02-14T12:26:28.838Z,94905.59
2018-02-14T12:28:57.238Z,94897.97
2018-02-14T12:31:25.630Z,94889.42
2018-02-14T12:33:54.069Z,94899.33
2018-02-14T12:36:22.461Z,94895.53
2018-02-14T12:38:50.999Z,94899.00
2018-02-14T12:41:19.467Z,94916.42
2018-02-14T12:43:47.978Z,94910.86
2018-02-14T12:46:16.445Z,94909.27
2018-02-14T12:48:44.832Z,94918.45
2018-02-14T12:51:13.323Z,94903.50
2018-02-14T12:53:41.739Z,94900.48
2018-02-14T12:56:10.147Z,94897.52
2018-02-14T12:58:38.690Z,94904.59
2018-02-14T13:01:07.105Z,94895.74
2018-02-14T13:03:35.515Z,94898.17
2018-02-14T13:06:03.920Z,94904.09
2018-02-14T13:08:32.321Z,94893.75
2018-02-14T13:11:00.858Z,94901.34
2018-02-14T13:13:29.327Z,94892.33
2018-02-14T13:15:57.706Z,94898.59
2018-02-14T13:18:26.147Z,94888.70
2018-02-14T13:20:54.567Z,94897.77
2018-02-14T13:23:23.341Z,94896.65
2018-02-14T13:25:51.731Z,94897.64
2018-02-14T13:28:20.152Z,94895.16
2018-02-14T13:30:48.570Z,94895.20
2018-02-14T13:33:16.968Z,94898.28
2018-02-14T13:35:45.713Z,94898.52
2018-02-14T13:38:14.125Z,94898.34
2018-02-14T13:40:42.530Z,94892.27
2018-02-14T13:43:10.944Z,94890.26
2018-02-14T13:45:39.369Z,94893.42
2018-02-14T13:48:07.861Z,94897.70
2018-02-14T13:50:36.262Z,94897.52
2018-02-14T13:53:04.801Z,94893.80
2018-02-14T13:55:33.385Z,94896.05
2018-02-14T13:58:01.805Z,94898.48
2018-02-14T14:00:30.346Z,94893.93
2018-02-14T14:02:58.897Z,94893.97
2018-02-14T14:05:27.311Z,94895.19
2018-02-14T14:07:56.704Z,94903.55
2018-02-14T14:10:25.102Z,94894.28
2018-02-14T14:12:53.613Z,94893.95
2018-02-14T14:15:22.096Z,94891.76
2018-02-14T14:17:50.478Z,94899.27
2018-02-14T14:20:19.047Z,94892.56
2018-02-14T14:22:47.494Z,94894.35
2018-02-14T14:25:15.888Z,94902.45
2018-02-14T14:27:44.292Z,94903.11
2018-02-14T14:30:12.682Z,94896.83
2018-02-14T14:32:41.249Z,94893.31
2018-02-14T14:35:09.745Z,94881.70
2018-02-14T14:37:38.177Z,94881.23
2018-02-14T14:40:06.606Z,94882.28
2018-02-14T14:42:35.035Z,94874.81
2018-02-14T14:45:03.428Z,94882.68
2018-02-14T14:47:31.994Z,94875.78
2018-02-14T14:50:00.527Z,94881.95
2018-02-14T14:52:28.999Z,94887.28
2018-02-14T14:54:57.435Z,94890.39
2018-02-14T14:57:25.924Z,94891.48
2018-02-14T14:59:54.306Z,94886.30
2018-02-14T15:02:22.689Z,94892.17
2018-02-14T15:04:51.176Z,94901.45
2018-02-14T15:07:19.576Z,94898.21
2018-02-14T15:09:48.076Z,94899.07
2018-02-14T15:12:16.485Z,94895.18
2018-02-14T15:14:44.962Z,94892.16
2018-02-14T15:17:13.366Z,94891.39
2018-02-14T15:19:41.759Z,94887.31
2018-02-14T15:22:10.160Z,94882.59
2018-02-14T15:24:38.596Z,94888.59
2018-02-14T15:27:07.089Z,94877.97
2018-02-14T15:29:35.485Z,94881.52
2018-02-14T15:32:03.886Z,94882.09
2018-02-14T15:34:32.294Z,94885.25
2018-02-14T15:37:00.705Z,94889.70
2018-02-14T15:39:29.116Z,94889.70
2018-02-14T15:41:57.545Z,94884.94
2018-02-14T15:44:26.009Z,94882.46
2018-02-14T15:46:54.436Z,94882.11
2018-02-14T15:49:22.961Z,94884.88
2018-02-14T15:51:51.433Z,94888.18
2018-02-14T15:54:19.941Z,94884.02
2018-02-14T15:56:48.456Z,94884.39
2018-02-14T15:59:16.981Z,94877.85
2018-02-14T16:01:45.391Z,94878.11
2018-02-14T16:04:13.778Z,94888.23
2018-02-14T16:06:42.197Z,94889.03
2018-02-14T16:09:10.624Z,94890.96
2018-02-14T16:11:39.120Z,94894.66
2018-02-14T16:14:07.629Z,94895.31
2018-02-14T16:16:36.040Z,94901.45
2018-02-14T16:19:04.586Z,94905.45
2018-02-14T16:21:33.063Z,94912.81
2018-02-14T16:24:01.551Z,94906.81
2018-02-14T16:26:29.997Z,94907.42
2018-02-14T16:28:58.399Z,94916.34
2018-02-14T16:31:27.192Z,94923.25
2018-02-14T16:33:55.620Z,94923.78
2018-02-14T16:36:24.041Z,94936.97
2018-02-14T16:38:52.523Z,94925.48
2018-02-14T16:41:21.165Z,94925.02
2018-02-14T16:43:49.779Z,94925.80
2018-02-14T16:46:18.190Z,94931.33
2018-02-14T16:48:46.611Z,94929.72
2018-02-14T16:51:15.014Z,94932.70
2018-02-14T16:53:43.502Z,94931.81
2018-02-14T16:56:11.953Z,94936.45
2018-02-14T16:58:40.430Z,94952.19
2018-02-14T17:01:08.912Z,94948.00
2018-02-14T17:03:37.302Z,94946.56
2018-02-14T17:06:05.737Z,94948.20
2018-02-14T17:08:34.205Z,94948.73
2018-02-14T17:11:02.607Z,94948.58
2018-02-14T17:13:31.059Z,94945.87
2018-02-14T17:15:59.588Z,94946.34
2018-02-14T17:18:27.992Z,94944.70
2018-02-14T17:20:56.453Z,94940.91
2018-02-14T17:23:24.835Z,94946.75
2018-02-14T17:25:53.310Z,94948.02
2018-02-14T17:28:21.714Z,94952.36
2018-02-14T17:30:50.124Z,94955.04
2018-02-14T17:33:18.535Z,94968.22
2018-02-14T17:35:46.924Z,94966.91
2018-02-14T17:38:15.386Z,94957.70
2018-02-14T17:40:43.807Z,94954.50
2018-02-14T17:43:12.210Z,94953.63
2018-02-14T17:45:40.607Z,94949.24
2018-02-14T17:48:09.044Z,94948.23
2018-02-14T17:50:37.444Z,94948.95
2018-02-14T17:53:05.847Z,94958.20
2018-02-14T17:55:34.249Z,94959.71
2018-02-14T17:58:02.664Z,94953.31
2018-02-14T18:00:31.078Z,94953.81
2018-02-14T18:03:00.445Z,94964.38
2018-02-14T18:05:29.006Z,94951.25
2018-02-14T18:07:57.503Z,94949.77
2018-02-14T18:10:25.925Z,94956.46
2018-02-14T18:12:54.309Z,94959.48
2018-02-14T18:15:22.731Z,94955.14
2018-02-14T18:17:51.229Z,94959.60
2018-02-14T18:20:19.626Z,94958.77
2018-02-14T18:22:48.311Z,94949.99
2018-02-14T18:25:16.718Z,94957.91
2018-02-14T18:27:45.248Z,94956.17
2018-02-14T18:30:13.716Z,94959.39
2018-02-14T18:32:42.135Z,94954.53
2018-02-14T18:35:10.544Z,94958.13
2018-02-14T18:37:38.934Z,94960.26
2018-02-14T18:40:07.346Z,94967.25
2018-02-14T18:42:36.645Z,94961.27
2018-02-14T18:45:05.233Z,94963.34
2018-02-14T18:47:33.630Z,94963.03
2018-02-14T18:50:02.382Z,94954.08
2018-02-14T18:52:30.797Z,94945.19
2018-02-14T18:54:59.232Z,94943.08
2018-02-14T18:57:27.633Z,94940.89
2018-02-14T18:59:56.162Z,94939.72
2018-02-14T19:02:24.698Z,94942.95
2018-02-14T19:04:53.102Z,94930.11
2018-02-14T19:07:21.505Z,94928.14
2018-02-14T19:09:49.933Z,94923.98
2018-02-14T19:12:18.333Z,94924.89
2018-02-14T19:14:46.943Z,94921.45
2018-02-14T19:17:15.393Z,94925.59
2018-02-14T19:19:43.884Z,94914.43
2018-02-14T19:22:12.349Z,94919.09
2018-02-14T19:24:40.907Z,94910.04
2018-02-14T19:27:09.953Z,94913.98
2018-02-14T19:29:38.386Z,94927.05
2018-02-14T19:32:06.906Z,94915.55
2018-02-14T19:34:35.300Z,94911.22
2018-02-14T19:37:03.682Z,94904.08
2018-02-14T19:39:32.151Z,94917.52
2018-02-14T19:42:00.564Z,94912.81
2018-02-14T19:44:29.045Z,94911.91
2018-02-14T19:46:57.443Z,94918.88
2018-02-14T19:49:25.915Z,94907.36
2018-02-14T19:51:54.320Z,94896.08
2018-02-14T19:54:22.818Z,94884.02
2018-02-14T19:56:51.646Z,94878.78
2018-02-14T19:59:20.137Z,94881.27
2018-02-14T20:01:48.613Z,94880.25
2018-02-14T20:04:17.086Z,94865.25
2018-02-14T20:06:45.492Z,94865.89
2018-02-14T20:09:14.053Z,94863.03
2018-02-14T20:11:42.474Z,94867.61
2018-02-14T20:14:11.029Z,94871.53
2018-02-14T20:16:39.646Z,94864.92
2018-02-14T20:19:08.113Z,94867.11
2018-02-14T20:21:36.497Z,94862.07
2018-02-14T20:24:04.975Z,94865.03
2018-02-14T20:26:33.377Z,94852.45
2018-02-14T20:29:01.761Z,94856.28
2018-02-14T20:31:30.526Z,94848.20
2018-02-14T20:33:58.924Z,94852.23
2018-02-14T20:36:27.326Z,94861.15
2018-02-14T20:38:55.737Z,94853.91
2018-02-14T20:41:24.241Z,94865.68
2018-02-14T20:43:52.695Z,94869.23
2018-02-14T20:46:21.170Z,94857.84
2018-02-14T20:48:49.595Z,94846.09
2018-02-14T20:51:18.159Z,94858.10
2018-02-14T20:53:46.529Z,94861.58
2018-02-14T20:56:15.077Z,94867.17
2018-02-14T20:58:43.451Z,94865.83
2018-02-14T21:01:11.873Z,94868.59
2018-02-14T21:03:40.283Z,94854.39
2018-02-14T21:06:08.758Z,94863.75
2018-02-14T21:08:37.184Z,94848.16
2018-02-14T21:11:05.571Z,94841.41
2018-02-14T21:13:34.050Z,94847.08
2018-02-14T21:16:02.470Z,94845.06
2018-02-14T21:18:30.878Z,94841.95
2018-02-14T21:20:59.262Z,94835.07
2018-02-14T21:23:27.699Z,94829.83
2018-02-14T21:25:56.162Z,94835.09
2018-02-14T21:28:24.582Z,94841.92
2018-02-14T21:30:53.073Z,94857.34
2018-02-14T21:33:21.470Z,94829.82
2018-02-14T21:35:49.889Z,94831.89
2018-02-14T21:38:18.368Z,94845.75
2018-02-14T21:40:46.905Z,94845.05
2018-02-14T21:43:15.315Z,94832.64
2018-02-14T21:45:43.740Z,94842.51
2018-02-14T21:48:12.132Z,94824.20
2018-02-14T21:50:40.575Z,94834.69
2018-02-14T21:53:09.052Z,94814.86
2018-02-14T21:55:37.467Z,94825.81
2018-02-14T21:58:05.916Z,94816.60
2018-02-14T22:00:34.294Z,94808.45
2018-02-14T22:03:02.783Z,94808.48
2018-02-14T22:05:31.195Z,94793.23
2018-02-14T22:07:59.594Z,94810.23
2018-02-14T22:10:27.965Z,94798.12
2018-02-14T22:12:56.383Z,94795.95
2018-02-14T22:15:24.815Z,94806.04
2018-02-14T22:17:53.229Z,94792.57
2018-02-14T22:20:21.697Z,94798.02
2018-02-14T22:22:50.192Z,94818.78
2018-02-14T22:25:18.926Z,94800.18
2018-02-14T22:27:47.414Z,94814.36
2018-02-14T22:30:16.815Z,94815.86
2018-02-14T22:32:45.278Z,94797.13
2018-02-14T22:35:13.700Z,94799.08
2018-02-14T22:37:42.095Z,94798.98
2018-02-14T22:40:10.499Z,94784.27
2018-02-14T22:42:38.868Z,94795.39
2018-02-14T22:45:07.285Z,94783.96
2018-02-14T22:47:35.667Z,94761.58
2018-02-14T22:50:04.113Z,94762.97
2018-02-14T22:52:32.480Z,94765.02
2018-02-14T22:55:00.844Z,94760.95
2018-02-14T22:57:29.309Z,94782.95
2018-02-14T22:59:57.678Z,94794.45
2018-02-14T23:02:26.050Z,94770.19
2018-02-14T23:04:54.451Z,94777.84
2018-02-14T23:07:22.864Z,94760.42
2018-02-14T23:09:51.427Z,94771.38
2018-02-14T23:12:19.839Z,94774.24
2018-02-14T23:14:48.315Z,94771.61
2018-02-14T23:17:16.678Z,94774.75
2018-02-14T23:19:45.053Z,94775.88
2018-02-14T23:22:13.507Z,94773.39
2018-02-14T23:24:42.105Z,94770.20
2018-02-14T23:27:10.783Z,94772.33
2018-02-14T23:29:39.445Z,94766.94
2018-02-14T23:32:07.935Z,94764.19
2018-02-14T23:34:36.378Z,94778.28
2018-02-14T23:37:04.761Z,94782.41
2018-02-14T23:39:33.159Z,94781.95
2018-02-14T23:42:01.541Z,94779.72
2018-02-14T23:44:30.011Z,94759.92
2018-02-14T23:46:58.391Z,94757.88
2018-02-14T23:49:26.762Z,94756.08
2018-02-14T23:51:55.135Z,94767.39
2018-02-14T23:54:23.516Z,94765.28
2018-02-14T23:56:51.987Z,94751.47
2018-02-14T23:59:20.393Z,94751.48
